Metar z pełnej godziny Komunikat METAR ze strony awiacja.imgw.pl Metar G00 EPSC METAR EPSC 240500Z 18005KT 150V230 7000 BKN003 OVC004 04/04 Q1015 R13/72//95 =